New Waverly, TX

3:26 AM CDT on October 26, 2014 (GMT -0500)
Huntsville Municipal | Change Station
CLOSE
Current Station
Airport
Location: Huntsville,
Elevation: 364 ft
Nearby Weather Stations

Elev 364 ft 30.74 °N, 95.59 °W | Updated 33 minutes ago

Clear
Clear
63 °F
Feels Like 63 °F
N
5
Wind Variable Wind from South

Today
High -- | Low -- °F
--% Chance of Precip.
Yesterday
High -- | Low -- °F
Precip. -- in
7:32 AM 6:39 PM
Waxing Crescent, 6% visible
Pressure 30.05 in
Visibility 10.0 miles
Clouds Clear
Dew Point 58 °F
Humidity 84%
Rainfall 0.00 in
Snow Depth Not available.
UV 0 out of 12
Pollen 4.40 out of 12
Air Quality Not available.
Flu Activity Local Activity
METAR KUTS 260753Z AUTO 19004KT 10SM CLR 17/14 A3006 RMK AO2 SLP174 T01720144

More Conditions Fewer Conditions

Pressure 30.05 in
Visibility 10.0 miles
Clouds Clear
Dew Point 58 °F
Humidity 84%
Rainfall 0.00 in
Snow Depth Not available.
UV 0 out of 12
Pollen 4.40 out of 12
Air Quality Not available.
Flu Activity Local Activity
METAR KUTS 260753Z AUTO 19004KT 10SM CLR 17/14 A3006 RMK AO2 SLP174 T01720144

More Conditions Fewer Conditions

10-Day Weather Forecast

Almanac

Astronomy

Oct. 26, 2014 Rise Set
Actual Time 7:32 AM CDT 6:39 PM CDT
Civil Twilight 7:07 AM CDT 7:03 PM CDT
Nautical Twilight 6:39 AM CDT 7:32 PM CDT
Astronomical Twilight 6:11 AM CDT 8:00 PM CDT
Moon 10:04 AM CDT 8:59 PM CDT
Length of Visible Light 11h 56m
Length of Day
11h 07m
Tomorrow will be 1m 41s shorter.
Waxing Crescent, 6% of the Moon is Illuminated
Today
Waxing Crescent
Oct 30
First Quarter
Nov 6
Full
Nov 14
Last Quarter
Nov 22
New

Today's Extremes

State Highs State Lows

Community

WunderPhotos

Upload Photos

1,765,125 photos uploaded!

Nearby

Snow Depth

Station Depth Elevation
No new snow has been reported.

Earthquake Activity

City Distance Mag. Time & Date
No recent earthquake activity has been reported nearby.
Minimum magnitude displayed is 2.5.

Coastal Water Temperatures

Place Temperature
No Stations Reporting

Nearby Weather Stations